Time;durP1;ratioP1;P1;durP2;ratioP2;P2;SDS_P1;SDS_P2;PMS_P1;PMS_P2;Temp;Humidity;BMP_temperature;BMP_pressure;BME280_temperature;BME280_humidity;BME280_pressure;Samples;Min_cycle;Max_cycle;Signal;HPM_P1;HPM_P2
2023/03/07 00:02:22;;;;;;;21.60;11.77;;;1.30;99.90;;;;;;5057047;28;20182;-78
2023/03/07 00:04:48;;;;;;;20.23;11.60;;;1.30;99.90;;;;;;5057977;28;20531;-79
2023/03/07 00:07:14;;;;;;;20.13;11.57;;;1.30;99.90;;;;;;5056853;28;20262;-77
2023/03/07 00:09:40;;;;;;;22.60;11.90;;;1.30;99.90;;;;;;5057082;28;20188;-76
2023/03/07 00:12:07;;;;;;;23.40;12.10;;;1.30;99.90;;;;;;5056469;28;20184;-78
2023/03/07 00:14:33;;;;;;;20.50;11.73;;;1.30;99.90;;;;;;5056640;28;20575;-78
2023/03/07 00:16:58;;;;;;;20.80;11.77;;;1.30;99.90;;;;;;5056786;28;20307;-76
2023/03/07 00:19:24;;;;;;;20.53;11.13;;;1.30;99.90;;;;;;5056969;28;20177;-77
2023/03/07 00:21:49;;;;;;;20.37;11.43;;;1.30;99.90;;;;;;5057190;28;20542;-78
2023/03/07 00:24:15;;;;;;;21.07;11.37;;;1.30;99.90;;;;;;5057319;28;20179;-78
2023/03/07 00:26:41;;;;;;;23.57;12.03;;;1.30;99.90;;;;;;5056046;28;20312;-75
2023/03/07 00:29:08;;;;;;;22.37;11.73;;;1.30;99.90;;;;;;5056204;28;20188;-77
2023/03/07 00:31:34;;;;;;;23.63;11.87;;;1.30;99.90;;;;;;5056084;28;20207;-78
2023/03/07 00:34:00;;;;;;;21.60;12.10;;;1.30;99.90;;;;;;5057297;28;20234;-78
2023/03/07 00:36:26;;;;;;;22.63;12.40;;;1.30;99.90;;;;;;5056066;28;20177;-78
2023/03/07 00:38:52;;;;;;;23.13;12.30;;;1.30;99.90;;;;;;5057215;28;20751;-78
2023/03/07 00:41:26;;;;;;;21.37;11.97;;;1.30;99.90;;;;;;5057089;28;20272;-77
2023/03/07 00:43:53;;;;;;;23.73;11.90;;;1.30;99.90;;;;;;5055709;28;20169;-78
2023/03/07 00:46:20;;;;;;;22.43;11.37;;;1.30;99.90;;;;;;5056548;28;20204;-78
2023/03/07 00:48:46;;;;;;;23.03;11.53;;;1.30;99.90;;;;;;5056009;28;20228;-77
2023/03/07 00:51:15;;;;;;;19.17;10.67;;;1.40;99.90;;;;;;5057015;28;20177;-77
2023/03/07 00:53:41;;;;;;;21.80;11.77;;;1.40;99.90;;;;;;5055442;28;20222;-80
2023/03/07 00:56:12;;;;;;;20.93;11.33;;;1.30;99.90;;;;;;5058388;28;20168;-77
2023/03/07 00:58:37;;;;;;;20.00;11.43;;;1.30;99.90;;;;;;5058067;28;20205;-77
2023/03/07 01:01:05;;;;;;;22.50;11.80;;;1.30;99.90;;;;;;5057752;28;20187;-77
2023/03/07 01:03:33;;;;;;;18.90;10.77;;;1.30;99.90;;;;;;5059128;28;20319;-77
2023/03/07 01:06:02;;;;;;;21.17;10.97;;;1.30;99.90;;;;;;5058180;28;20177;-77
2023/03/07 01:08:28;;;;;;;20.93;10.77;;;1.30;99.90;;;;;;5058209;28;20216;-77
2023/03/07 01:10:58;;;;;;;23.40;11.60;;;1.30;99.90;;;;;;5057355;28;20181;-77
2023/03/07 01:13:24;;;;;;;21.73;12.07;;;1.30;99.90;;;;;;5058703;28;20236;-77
2023/03/07 01:15:49;;;;;;;20.87;11.33;;;1.30;99.90;;;;;;5058625;28;20638;-77
2023/03/07 01:18:15;;;;;;;21.77;11.43;;;1.30;99.90;;;;;;5057415;28;20248;-78
2023/03/07 01:20:40;;;;;;;22.40;12.33;;;1.20;99.90;;;;;;5057541;28;20229;-76
2023/03/07 01:23:06;;;;;;;24.20;13.03;;;1.20;99.90;;;;;;5059062;28;20193;-77
2023/03/07 01:25:40;;;;;;;23.83;12.73;;;1.20;99.90;;;;;;5058708;28;20177;-77
2023/03/07 01:28:06;;;;;;;25.17;13.37;;;1.20;99.90;;;;;;5057339;28;20225;-78
2023/03/07 01:30:32;;;;;;;24.27;12.87;;;1.10;99.90;;;;;;5056827;28;20187;-79
2023/03/07 01:32:59;;;;;;;23.23;12.37;;;1.10;99.90;;;;;;5058244;28;20272;-78
2023/03/07 01:35:25;;;;;;;22.73;12.47;;;1.10;99.90;;;;;;5057463;28;20285;-77
2023/03/07 01:37:52;;;;;;;23.67;13.37;;;1.10;99.90;;;;;;5057040;28;20231;-77
2023/03/07 01:40:18;;;;;;;22.97;13.00;;;1.10;99.90;;;;;;5058234;28;20188;-77
2023/03/07 01:42:45;;;;;;;22.77;11.53;;;1.10;99.90;;;;;;5058179;28;20180;-78
2023/03/07 01:45:13;;;;;;;20.77;11.70;;;1.10;99.90;;;;;;5057834;28;20204;-77
2023/03/07 01:47:42;;;;;;;18.50;10.70;;;1.10;99.90;;;;;;5057070;28;20268;-77
2023/03/07 01:50:13;;;;;;;22.13;12.10;;;1.10;99.90;;;;;;5056309;28;20185;-78
2023/03/07 01:52:48;;;;;;;20.57;11.70;;;1.10;99.90;;;;;;5057973;28;20272;-77
2023/03/07 01:55:21;;;;;;;17.57;10.60;;;1.10;99.90;;;;;;5058212;28;20173;-77
2023/03/07 01:57:49;;;;;;;20.50;11.17;;;1.00;99.90;;;;;;5057662;28;20277;-78
2023/03/07 02:00:24;;;;;;;20.77;11.43;;;1.00;99.90;;;;;;5056107;28;20204;-79
2023/03/07 02:02:58;;;;;;;18.03;10.47;;;1.00;99.90;;;;;;5057643;28;20187;-77
2023/03/07 02:05:33;;;;;;;19.77;11.20;;;1.00;99.90;;;;;;5057345;28;20179;-77
2023/03/07 02:08:00;;;;;;;22.07;11.73;;;1.00;99.90;;;;;;5057450;28;20272;-77
2023/03/07 02:10:27;;;;;;;21.53;11.73;;;1.00;99.90;;;;;;5056023;28;20181;-77
2023/03/07 02:12:53;;;;;;;19.63;10.17;;;1.00;99.90;;;;;;5055770;28;20195;-77
2023/03/07 02:15:19;;;;;;;19.73;11.27;;;1.00;99.90;;;;;;5056922;28;20216;-77
2023/03/07 02:17:45;;;;;;;17.20;10.07;;;1.00;99.90;;;;;;5056164;28;20212;-77
2023/03/07 02:20:23;;;;;;;19.53;11.43;;;1.00;99.90;;;;;;5054872;28;20259;-77
2023/03/07 02:22:49;;;;;;;20.73;10.97;;;1.00;99.90;;;;;;5055749;28;20182;-78
2023/03/07 02:25:21;;;;;;;20.50;11.43;;;1.00;99.90;;;;;;5056715;28;20659;-77
2023/03/07 02:27:49;;;;;;;20.67;11.43;;;1.00;99.90;;;;;;5056102;28;20201;-78
2023/03/07 02:30:14;;;;;;;21.90;11.30;;;1.00;99.90;;;;;;5056551;28;20192;-77
2023/03/07 02:32:40;;;;;;;21.87;11.17;;;1.00;99.90;;;;;;5056163;28;20176;-78
2023/03/07 02:35:18;;;;;;;18.63;10.27;;;1.00;99.90;;;;;;5056192;28;20211;-76
2023/03/07 02:37:46;;;;;;;18.47;10.40;;;1.00;99.90;;;;;;5054635;28;20212;-77
2023/03/07 02:40:15;;;;;;;20.63;11.57;;;1.00;99.90;;;;;;5056154;28;20232;-77
2023/03/07 02:42:42;;;;;;;21.57;11.17;;;1.00;99.90;;;;;;5053033;28;20263;-78
2023/03/07 02:45:11;;;;;;;18.50;10.80;;;1.00;99.90;;;;;;5054263;28;20266;-78
2023/03/07 02:47:37;;;;;;;20.23;11.00;;;1.00;99.90;;;;;;5052668;28;20538;-78
2023/03/07 02:50:03;;;;;;;19.80;10.67;;;1.10;99.90;;;;;;5053488;28;20181;-78
2023/03/07 02:52:29;;;;;;;20.57;11.13;;;1.10;99.90;;;;;;5052728;28;20190;-78
2023/03/07 02:54:55;;;;;;;17.23;9.93;;;1.10;99.90;;;;;;5053698;28;20313;-77
2023/03/07 02:57:21;;;;;;;18.77;10.13;;;1.10;99.90;;;;;;5052636;28;20206;-77
2023/03/07 02:59:46;;;;;;;17.33;10.60;;;1.10;99.90;;;;;;5053295;28;20184;-78
2023/03/07 03:02:12;;;;;;;20.57;11.37;;;1.00;99.90;;;;;;5052517;28;20181;-77
2023/03/07 03:04:37;;;;;;;19.87;10.47;;;1.00;99.90;;;;;;5053466;28;20177;-77
2023/03/07 03:07:03;;;;;;;19.50;10.60;;;1.00;99.90;;;;;;5051928;28;20200;-78
2023/03/07 03:09:29;;;;;;;16.00;9.43;;;1.00;99.90;;;;;;5051919;28;20192;-77
2023/03/07 03:11:54;;;;;;;18.50;10.27;;;1.00;99.90;;;;;;5053099;28;20171;-77
2023/03/07 03:14:20;;;;;;;19.83;10.40;;;1.00;99.90;;;;;;5053160;28;20264;-78
2023/03/07 03:16:45;;;;;;;20.60;10.80;;;1.00;99.90;;;;;;5052603;28;20200;-78
2023/03/07 03:19:11;;;;;;;19.13;10.87;;;1.00;99.90;;;;;;5052117;28;20662;-77
2023/03/07 03:21:37;;;;;;;19.70;11.07;;;1.00;99.90;;;;;;5052836;28;20670;-78
2023/03/07 03:24:07;;;;;;;20.03;10.83;;;1.00;99.90;;;;;;5052563;28;20678;-77
2023/03/07 03:26:34;;;;;;;18.20;10.50;;;1.00;99.90;;;;;;5051238;28;20173;-78
2023/03/07 03:29:00;;;;;;;17.17;9.60;;;1.00;99.90;;;;;;5051449;28;20212;-77
2023/03/07 03:31:27;;;;;;;19.50;10.70;;;1.00;99.90;;;;;;5053167;28;20660;-78
2023/03/07 03:33:53;;;;;;;18.00;9.97;;;1.00;99.90;;;;;;5056525;28;20631;-78
2023/03/07 03:36:19;;;;;;;21.10;10.67;;;1.00;99.90;;;;;;5055223;28;20275;-78
2023/03/07 03:38:45;;;;;;;18.70;10.47;;;1.10;99.90;;;;;;5056606;28;20192;-77
2023/03/07 03:41:14;;;;;;;17.73;10.13;;;1.10;99.90;;;;;;5056230;28;20212;-78
2023/03/07 03:43:40;;;;;;;17.03;9.93;;;1.10;99.90;;;;;;5055185;28;20185;-78
2023/03/07 03:46:05;;;;;;;18.73;10.50;;;1.00;99.90;;;;;;5055238;28;20784;-78
2023/03/07 03:48:31;;;;;;;16.87;10.00;;;1.10;99.90;;;;;;5050496;28;20249;-77
2023/03/07 03:51:06;;;;;;;15.40;9.63;;;1.10;99.90;;;;;;5056269;28;20531;-77
2023/03/07 03:53:33;;;;;;;17.17;9.87;;;1.10;99.90;;;;;;5054652;28;20188;-79
2023/03/07 03:56:13;;;;;;;15.77;10.00;;;1.10;99.90;;;;;;5056247;28;20191;-78
2023/03/07 03:58:39;;;;;;;17.13;9.50;;;1.10;99.90;;;;;;5054728;28;20212;-78
2023/03/07 04:01:07;;;;;;;20.90;10.60;;;1.10;99.90;;;;;;5055087;28;20267;-78
2023/03/07 04:03:38;;;;;;;14.20;8.83;;;1.10;99.90;;;;;;5059234;28;20177;-77
2023/03/07 04:06:09;;;;;;;15.00;9.17;;;1.20;99.90;;;;;;5058367;28;20180;-78
2023/03/07 04:08:36;;;;;;;16.57;9.23;;;1.10;99.90;;;;;;5055477;28;20236;-77
2023/03/07 04:11:03;;;;;;;16.03;9.73;;;1.20;99.90;;;;;;5050084;28;20182;-77
2023/03/07 04:13:31;;;;;;;15.70;9.03;;;1.10;99.90;;;;;;5039535;28;20240;-77
2023/03/07 04:15:56;;;;;;;16.10;9.07;;;1.10;99.90;;;;;;5055071;28;20231;-78
2023/03/07 04:18:23;;;;;;;19.07;10.30;;;1.10;99.90;;;;;;5054270;28;20251;-77
2023/03/07 04:20:50;;;;;;;18.30;9.97;;;1.10;99.90;;;;;;5054139;28;20176;-77
2023/03/07 04:23:17;;;;;;;18.47;11.03;;;1.20;99.90;;;;;;5038720;28;20181;-77
2023/03/07 04:25:50;;;;;;;18.23;10.87;;;1.20;99.90;;;;;;5039355;28;20178;-77
2023/03/07 04:28:17;;;;;;;15.70;9.70;;;1.20;99.90;;;;;;5054032;28;20225;-77
2023/03/07 04:30:42;;;;;;;19.13;10.17;;;1.20;99.90;;;;;;5054233;28;20185;-77
2023/03/07 04:33:08;;;;;;;17.20;10.23;;;1.20;99.90;;;;;;5053958;28;20558;-77
2023/03/07 04:35:34;;;;;;;17.37;10.33;;;1.20;99.90;;;;;;5038309;28;20185;-77
2023/03/07 04:37:59;;;;;;;16.47;10.30;;;1.20;99.90;;;;;;5053954;28;20356;-78
2023/03/07 04:40:25;;;;;;;17.80;9.90;;;1.20;99.90;;;;;;5054921;28;20203;-77
2023/03/07 04:42:50;;;;;;;18.07;10.97;;;1.20;99.90;;;;;;5052251;28;20177;-77
2023/03/07 04:45:16;;;;;;;17.43;10.37;;;1.20;99.90;;;;;;5058370;28;20181;-78
2023/03/07 04:47:42;;;;;;;20.10;11.20;;;1.30;99.90;;;;;;5057256;28;20241;-78
2023/03/07 04:50:07;;;;;;;18.00;10.60;;;1.20;99.90;;;;;;5057475;28;20682;-78
2023/03/07 04:52:33;;;;;;;18.50;10.33;;;1.30;99.90;;;;;;5058026;28;20188;-77
2023/03/07 04:54:59;;;;;;;17.13;9.67;;;1.20;99.90;;;;;;5058921;28;20189;-77
2023/03/07 04:57:24;;;;;;;17.90;10.73;;;1.20;99.90;;;;;;5057682;28;20216;-77
2023/03/07 04:59:50;;;;;;;16.43;10.80;;;1.20;99.90;;;;;;5056960;28;20172;-78
2023/03/07 05:02:15;;;;;;;18.33;10.60;;;1.30;99.90;;;;;;5058454;28;20535;-77
2023/03/07 05:04:41;;;;;;;18.30;10.60;;;1.30;99.90;;;;;;5057332;28;20235;-77
2023/03/07 05:07:16;;;;;;;20.93;10.70;;;1.30;99.90;;;;;;5057476;28;20202;-80
2023/03/07 05:09:41;;;;;;;15.23;9.17;;;1.30;99.90;;;;;;5058312;28;20173;-77
2023/03/07 05:12:07;;;;;;;17.50;10.07;;;1.30;99.90;;;;;;5058856;28;20243;-78
2023/03/07 05:14:33;;;;;;;18.97;10.33;;;1.30;99.90;;;;;;5057656;28;20173;-77
2023/03/07 05:16:58;;;;;;;17.70;10.17;;;1.30;99.90;;;;;;5058430;28;20223;-78
2023/03/07 05:19:24;;;;;;;16.57;9.70;;;1.30;99.90;;;;;;5057357;28;20177;-78
2023/03/07 05:21:49;;;;;;;15.00;9.43;;;1.30;99.90;;;;;;5057617;28;20239;-77
2023/03/07 05:24:15;;;;;;;17.60;10.17;;;1.30;99.90;;;;;;5058367;28;20214;-78
2023/03/07 05:26:41;;;;;;;15.43;9.53;;;1.30;99.90;;;;;;5058047;28;20196;-77
2023/03/07 05:29:06;;;;;;;15.67;8.93;;;1.30;99.90;;;;;;5056400;28;20193;-77
2023/03/07 05:31:32;;;;;;;17.43;9.73;;;1.40;99.90;;;;;;5057809;28;20184;-77
2023/03/07 05:33:58;;;;;;;15.30;9.33;;;1.40;99.90;;;;;;5056201;28;20176;-77
2023/03/07 05:36:23;;;;;;;13.93;8.07;;;1.30;99.90;;;;;;5057259;28;20275;-78
2023/03/07 05:38:52;;;;;;;15.37;10.00;;;1.30;99.90;;;;;;5058034;28;20190;-77
2023/03/07 05:41:18;;;;;;;12.07;7.70;;;1.40;99.90;;;;;;5055662;28;20177;-77
2023/03/07 05:43:43;;;;;;;14.20;9.30;;;1.30;99.90;;;;;;5056441;28;20179;-77
2023/03/07 05:46:09;;;;;;;14.70;9.37;;;1.40;99.90;;;;;;5055711;28;20647;-77
2023/03/07 05:48:34;;;;;;;15.07;9.40;;;1.40;99.90;;;;;;5056011;28;20196;-78
2023/03/07 05:51:00;;;;;;;15.97;9.53;;;1.40;99.90;;;;;;5048121;28;20545;-79
2023/03/07 05:53:26;;;;;;;16.50;9.07;;;1.40;99.90;;;;;;5037150;28;20170;-78
2023/03/07 05:55:51;;;;;;;13.93;9.23;;;1.40;99.90;;;;;;5037351;28;20279;-78
2023/03/07 05:58:17;;;;;;;17.50;10.07;;;1.40;99.90;;;;;;5036372;28;20217;-78
2023/03/07 06:00:42;;;;;;;15.07;9.57;;;1.40;99.90;;;;;;5036298;28;20184;-77
2023/03/07 06:03:08;;;;;;;16.47;10.33;;;1.40;99.90;;;;;;5037167;28;20177;-78
2023/03/07 06:05:34;;;;;;;16.93;9.80;;;1.40;99.90;;;;;;5034512;28;20188;-79
2023/03/07 06:07:59;;;;;;;16.47;9.67;;;1.50;99.90;;;;;;5035801;28;20212;-78
2023/03/07 06:10:25;;;;;;;22.17;10.90;;;1.50;99.90;;;;;;5037056;28;20188;-79
2023/03/07 06:12:52;;;;;;;20.57;11.57;;;1.50;99.90;;;;;;5033064;28;20181;-78
2023/03/07 06:15:18;;;;;;;17.30;10.73;;;1.50;99.90;;;;;;5032049;28;20233;-80
2023/03/07 06:17:44;;;;;;;19.43;11.43;;;1.50;99.90;;;;;;5033075;28;20213;-78
2023/03/07 06:20:10;;;;;;;20.47;11.13;;;1.50;99.90;;;;;;5033396;28;20559;-81
2023/03/07 06:22:39;;;;;;;19.53;10.80;;;1.60;99.90;;;;;;5033478;28;20663;-79
2023/03/07 06:25:06;;;;;;;19.30;11.50;;;1.60;99.90;;;;;;5033353;28;20189;-79
2023/03/07 06:27:35;;;;;;;21.90;11.63;;;1.60;99.90;;;;;;5032730;28;20239;-79
2023/03/07 06:30:02;;;;;;;22.30;13.10;;;1.60;99.90;;;;;;5031401;28;20178;-78
2023/03/07 06:32:29;;;;;;;19.73;11.90;;;1.60;99.90;;;;;;5031764;28;20186;-79
2023/03/07 06:34:55;;;;;;;20.90;11.43;;;1.60;99.90;;;;;;5031689;28;20235;-79
2023/03/07 06:37:20;;;;;;;21.33;12.83;;;1.60;99.90;;;;;;5032903;28;20226;-79
2023/03/07 06:39:46;;;;;;;24.47;13.10;;;1.70;99.90;;;;;;5034730;28;20173;-78
2023/03/07 06:42:11;;;;;;;24.43;13.87;;;1.70;99.90;;;;;;5032280;28;20182;-78
2023/03/07 06:44:37;;;;;;;20.37;11.97;;;1.70;99.90;;;;;;5033001;28;20174;-78
2023/03/07 06:47:03;;;;;;;21.73;13.13;;;1.70;99.90;;;;;;5031707;28;20208;-79
2023/03/07 06:49:28;;;;;;;25.40;12.20;;;1.70;99.90;;;;;;5031666;28;20533;-80
2023/03/07 06:51:54;;;;;;;19.80;12.07;;;1.70;99.90;;;;;;5032671;28;20615;-79
2023/03/07 06:54:20;;;;;;;21.40;12.70;;;1.80;99.90;;;;;;5031373;28;20196;-79
2023/03/07 06:56:45;;;;;;;24.20;13.57;;;1.80;99.90;;;;;;5031519;28;20217;-79
2023/03/07 06:59:11;;;;;;;25.30;13.47;;;1.80;99.90;;;;;;5033000;28;20174;-81
2023/03/07 07:01:36;;;;;;;22.10;12.47;;;1.80;99.90;;;;;;5031839;28;20188;-79
2023/03/07 07:04:03;;;;;;;23.80;13.03;;;1.90;99.90;;;;;;5033443;28;20174;-80
2023/03/07 07:06:29;;;;;;;21.50;12.33;;;1.90;99.90;;;;;;5031195;28;20181;-80
2023/03/07 07:08:56;;;;;;;20.63;10.57;;;1.90;99.90;;;;;;5032724;28;20263;-81
2023/03/07 07:11:23;;;;;;;23.50;14.03;;;1.90;99.90;;;;;;5031324;28;20648;-82
2023/03/07 07:13:49;;;;;;;19.70;11.63;;;1.90;99.90;;;;;;5031486;28;20179;-81
2023/03/07 07:16:16;;;;;;;21.77;12.47;;;2.00;99.90;;;;;;5032754;28;20181;-80
2023/03/07 07:18:42;;;;;;;22.50;12.53;;;2.00;99.90;;;;;;5031241;28;20230;-81
2023/03/07 07:21:08;;;;;;;21.20;11.53;;;2.00;99.90;;;;;;5031314;28;20213;-81
2023/03/07 07:23:34;;;;;;;22.63;12.20;;;2.00;99.90;;;;;;5031405;28;20232;-80
2023/03/07 07:26:00;;;;;;;22.77;12.40;;;2.00;99.90;;;;;;5033799;28;20192;-80
2023/03/07 07:28:26;;;;;;;23.47;12.87;;;2.00;99.90;;;;;;5031290;28;20198;-80
2023/03/07 07:30:52;;;;;;;20.83;12.17;;;2.00;99.90;;;;;;5032369;28;20240;-80
2023/03/07 07:33:17;;;;;;;21.43;12.33;;;2.00;99.90;;;;;;5066088;28;20222;-80
2023/03/07 07:35:44;;;;;;;22.00;12.63;;;2.00;99.90;;;;;;5077203;28;20172;-79
2023/03/07 07:38:10;;;;;;;21.63;12.77;;;2.00;99.90;;;;;;5075979;28;20284;-79
2023/03/07 07:40:36;;;;;;;19.40;11.93;;;2.00;99.90;;;;;;5077340;28;20222;-80
2023/03/07 07:43:01;;;;;;;25.30;12.90;;;2.00;99.90;;;;;;5057363;28;20193;-80
2023/03/07 07:45:27;;;;;;;20.60;11.10;;;2.00;99.90;;;;;;5039172;28;20170;-80
2023/03/07 07:47:52;;;;;;;22.47;13.23;;;2.10;99.90;;;;;;5035666;28;20198;-77
2023/03/07 07:50:20;;;;;;;20.17;12.47;;;2.10;99.90;;;;;;5036736;28;20179;-82
2023/03/07 07:52:46;;;;;;;19.50;11.87;;;2.10;99.90;;;;;;5036488;28;20178;-81
2023/03/07 07:55:13;;;;;;;22.40;13.03;;;2.10;99.90;;;;;;5036240;28;20185;-80
2023/03/07 07:57:39;;;;;;;21.67;12.30;;;2.10;99.90;;;;;;5033670;28;20585;-78
2023/03/07 08:00:06;;;;;;;19.70;11.93;;;2.10;99.90;;;;;;5034665;28;20178;-79
2023/03/07 08:02:34;;;;;;;21.30;12.53;;;2.10;99.90;;;;;;5033052;28;20178;-79
2023/03/07 08:04:59;;;;;;;20.70;12.90;;;2.20;99.90;;;;;;5034224;28;20581;-80
2023/03/07 08:07:25;;;;;;;20.60;11.67;;;2.20;99.90;;;;;;5033066;28;20273;-81
2023/03/07 08:09:50;;;;;;;21.17;12.07;;;2.20;99.90;;;;;;5031368;28;20707;-82
2023/03/07 08:12:16;;;;;;;20.20;11.93;;;2.20;99.90;;;;;;5034511;28;20346;-83
2023/03/07 08:14:42;;;;;;;19.33;11.47;;;2.30;99.90;;;;;;5033344;28;20201;-82
2023/03/07 08:17:07;;;;;;;20.27;11.30;;;2.30;99.90;;;;;;5031562;28;20703;-78
2023/03/07 08:19:33;;;;;;;22.23;12.67;;;2.30;99.90;;;;;;5034529;28;20208;-80
2023/03/07 08:21:59;;;;;;;18.50;11.20;;;2.30;99.90;;;;;;5035815;28;20175;-84
2023/03/07 08:24:25;;;;;;;19.60;11.13;;;2.40;99.90;;;;;;5035679;28;20179;-84
2023/03/07 08:26:50;;;;;;;18.47;10.27;;;2.40;99.90;;;;;;5035108;28;20182;-82
2023/03/07 08:29:16;;;;;;;20.80;12.33;;;2.40;99.90;;;;;;5042727;28;20260;-82
2023/03/07 08:31:45;;;;;;;18.93;11.63;;;2.40;99.90;;;;;;5052586;28;20182;-83
2023/03/07 08:34:11;;;;;;;17.87;10.83;;;2.40;99.90;;;;;;5051236;28;20247;-82
2023/03/07 08:36:38;;;;;;;15.70;9.27;;;2.40;99.90;;;;;;5068902;28;20269;-82
2023/03/07 08:39:04;;;;;;;20.87;11.93;;;2.50;99.90;;;;;;5034000;28;20198;-82
2023/03/07 08:41:29;;;;;;;17.20;11.13;;;2.50;99.90;;;;;;5035878;28;20171;-82
2023/03/07 08:43:55;;;;;;;20.57;11.87;;;2.60;99.90;;;;;;5035901;28;20536;-82
2023/03/07 08:46:20;;;;;;;19.93;11.57;;;2.70;99.90;;;;;;5035860;28;20174;-81
2023/03/07 08:48:46;;;;;;;14.53;8.73;;;2.70;99.90;;;;;;5040726;28;20198;-80
2023/03/07 08:51:14;;;;;;;16.33;9.97;;;2.80;99.90;;;;;;5035265;28;20183;-82
2023/03/07 08:53:42;;;;;;;19.53;11.53;;;2.80;99.90;;;;;;5034543;28;20270;-83
2023/03/07 08:56:12;;;;;;;14.73;9.53;;;2.70;99.90;;;;;;5034414;28;20558;-82
2023/03/07 08:58:38;;;;;;;14.33;8.40;;;2.70;99.90;;;;;;5035277;28;20788;-83
2023/03/07 09:01:05;;;;;;;20.43;11.57;;;2.80;99.90;;;;;;5035149;28;20257;-83
2023/03/07 09:03:30;;;;;;;18.07;10.47;;;2.80;99.90;;;;;;5035374;28;20221;-83
2023/03/07 09:05:56;;;;;;;17.47;10.43;;;2.80;99.90;;;;;;5034058;28;20207;-83
2023/03/07 09:08:22;;;;;;;19.40;10.63;;;2.80;99.90;;;;;;5034248;28;20587;-83
2023/03/07 09:10:47;;;;;;;17.37;10.93;;;2.90;99.90;;;;;;5033966;28;20182;-82
2023/03/07 09:13:13;;;;;;;18.17;10.90;;;2.90;99.90;;;;;;5035023;28;20234;-83
2023/03/07 09:15:39;;;;;;;16.40;10.40;;;2.90;99.90;;;;;;5035122;28;20267;-83
2023/03/07 09:18:06;;;;;;;19.53;11.10;;;2.90;99.90;;;;;;5034200;28;20218;-83
2023/03/07 09:20:31;;;;;;;17.00;9.60;;;3.00;99.90;;;;;;5033938;28;20554;-83
2023/03/07 09:22:57;;;;;;;17.03;10.63;;;3.00;99.90;;;;;;5034049;28;20174;-83
2023/03/07 09:25:22;;;;;;;17.43;10.47;;;3.10;99.90;;;;;;5034240;28;20262;-83
2023/03/07 09:27:48;;;;;;;15.83;10.07;;;3.10;99.90;;;;;;5033895;28;20705;-83
2023/03/07 09:30:14;;;;;;;14.40;8.50;;;3.20;99.90;;;;;;5033444;28;20186;-83
2023/03/07 09:32:40;;;;;;;15.73;8.00;;;3.20;99.90;;;;;;5034253;28;20182;-83
2023/03/07 09:35:06;;;;;;;12.70;8.07;;;3.30;99.90;;;;;;5033728;28;20202;-83
2023/03/07 09:37:32;;;;;;;17.10;9.53;;;3.30;99.90;;;;;;5034259;28;20305;-83
2023/03/07 09:39:57;;;;;;;15.27;9.47;;;3.30;99.90;;;;;;5033954;28;20178;-83
2023/03/07 09:42:36;;;;;;;14.47;9.83;;;3.40;99.90;;;;;;5034638;28;20184;-83
2023/03/07 09:45:20;;;;;;;15.93;9.30;;;3.40;99.90;;;;;;5033150;28;20175;-83
2023/03/07 09:48:10;;;;;;;15.97;10.23;;;3.40;99.90;;;;;;5032914;28;20292;-83
2023/03/07 09:50:57;;;;;;;14.67;9.10;;;3.50;99.90;;;;;;5034135;28;20187;-83
2023/03/07 09:53:42;;;;;;;15.63;9.07;;;3.60;99.90;;;;;;5033068;28;20164;-83
2023/03/07 09:56:18;;;;;;;16.00;9.03;;;3.60;99.90;;;;;;5032818;28;20164;-82
2023/03/07 09:58:49;;;;;;;14.10;9.03;;;3.70;99.90;;;;;;5033955;28;20231;-82
2023/03/07 10:01:21;;;;;;;14.33;9.23;;;3.80;99.90;;;;;;5032392;28;20187;-82
2023/03/07 10:04:05;;;;;;;13.87;8.87;;;3.90;99.90;;;;;;5032882;28;20533;-83
2023/03/07 10:06:34;;;;;;;14.27;8.97;;;4.10;99.90;;;;;;5033775;28;20207;-83
2023/03/07 10:09:01;;;;;;;17.63;8.87;;;4.20;99.90;;;;;;5032332;28;20211;-82
2023/03/07 10:11:28;;;;;;;14.37;8.40;;;4.30;99.90;;;;;;5032251;28;20181;-83
2023/03/07 10:14:06;;;;;;;13.37;8.53;;;4.30;99.90;;;;;;5032217;28;20179;-83
2023/03/07 10:16:54;;;;;;;12.67;8.70;;;4.30;99.90;;;;;;5033839;28;20221;-83
2023/03/07 10:19:43;;;;;;;12.27;8.90;;;4.40;99.90;;;;;;5033576;28;20169;-82
2023/03/07 10:22:29;;;;;;;15.87;8.90;;;4.50;99.90;;;;;;5032643;28;20192;-82
2023/03/07 10:25:19;;;;;;;14.57;9.10;;;4.60;99.90;;;;;;5031629;28;20189;-83
2023/03/07 10:27:46;;;;;;;13.40;7.90;;;4.50;99.90;;;;;;5032277;28;20201;-82
2023/03/07 10:30:18;;;;;;;13.20;8.03;;;4.50;99.90;;;;;;5033459;28;20201;-83
2023/03/07 10:32:48;;;;;;;12.93;8.20;;;4.60;99.90;;;;;;5032496;28;20182;-84
2023/03/07 10:35:19;;;;;;;13.40;7.80;;;4.80;99.90;;;;;;5033386;28;20167;-83
2023/03/07 10:37:49;;;;;;;13.53;8.33;;;4.80;99.90;;;;;;5031849;28;20213;-83
2023/03/07 10:40:52;;;;;;;11.13;7.37;;;4.90;99.90;;;;;;5033559;28;20178;-84
2023/03/07 10:43:30;;;;;;;11.80;7.37;;;5.10;99.90;;;;;;5033040;28;20181;-83
2023/03/07 10:46:20;;;;;;;11.63;7.47;;;5.10;99.90;;;;;;5033605;28;20552;-83
2023/03/07 10:48:52;;;;;;;11.07;6.97;;;5.50;99.90;;;;;;5033366;28;20671;-83
2023/03/07 10:51:35;;;;;;;10.20;6.53;;;5.90;99.90;;;;;;5031864;28;20182;-82
2023/03/07 10:54:01;;;;;;;11.43;7.27;;;5.80;99.90;;;;;;5033653;28;20173;-84
2023/03/07 10:56:27;;;;;;;11.07;7.23;;;5.50;99.90;;;;;;5033220;28;20256;-83
2023/03/07 10:59:09;;;;;;;12.60;7.23;;;5.30;99.90;;;;;;5033253;28;20605;-83
2023/03/07 11:01:51;;;;;;;10.77;7.83;;;5.20;99.90;;;;;;5031345;28;20665;-83
2023/03/07 11:04:22;;;;;;;10.73;7.27;;;5.20;99.90;;;;;;5031676;28;20163;-83
2023/03/07 11:06:56;;;;;;;10.30;6.80;;;5.20;99.90;;;;;;5032900;28;20201;-83
2023/03/07 11:09:34;;;;;;;11.80;7.47;;;5.30;99.90;;;;;;5033124;28;20170;-83
2023/03/07 11:12:08;;;;;;;10.43;6.97;;;5.30;99.90;;;;;;5032619;28;20546;-83
2023/03/07 11:14:52;;;;;;;11.87;7.50;;;5.40;99.90;;;;;;5031875;28;20616;-83
2023/03/07 11:17:27;;;;;;;9.93;6.97;;;5.20;99.90;;;;;;5033051;28;20239;-82
2023/03/07 11:19:55;;;;;;;11.80;7.53;;;5.00;99.90;;;;;;5031667;28;20165;-82
2023/03/07 11:22:20;;;;;;;12.43;7.07;;;5.00;99.90;;;;;;5031750;28;20185;-82
2023/03/07 11:24:54;;;;;;;10.97;7.23;;;5.00;99.90;;;;;;5032930;28;20189;-82
2023/03/07 11:27:44;;;;;;;10.93;7.10;;;4.80;99.90;;;;;;5031886;28;20282;-83
2023/03/07 11:30:17;;;;;;;12.37;7.67;;;4.70;99.90;;;;;;5019218;28;20193;-83
2023/03/07 11:32:57;;;;;;;12.00;7.27;;;4.60;99.90;;;;;;5033312;28;20181;-83
2023/03/07 11:35:42;;;;;;;9.17;6.40;;;4.70;99.90;;;;;;5033969;28;20555;-80
2023/03/07 11:38:13;;;;;;;10.70;6.03;;;4.60;99.90;;;;;;5031993;28;20209;-84
2023/03/07 11:40:48;;;;;;;11.00;7.67;;;4.70;99.90;;;;;;5033098;28;20161;-85
2023/03/07 11:43:23;;;;;;;11.97;8.00;;;4.80;99.90;;;;;;5033957;28;20651;-84
2023/03/07 11:46:08;;;;;;;10.13;6.53;;;4.90;99.90;;;;;;5033601;28;20258;-84
2023/03/07 11:48:47;;;;;;;11.67;6.87;;;5.00;99.90;;;;;;5032193;28;20248;-84
2023/03/07 11:51:38;;;;;;;12.40;7.50;;;5.10;99.90;;;;;;5032390;28;20173;-84
2023/03/07 11:54:30;;;;;;;10.07;6.80;;;5.10;99.90;;;;;;5035666;28;20260;-84
2023/03/07 11:57:04;;;;;;;11.40;6.80;;;5.10;99.90;;;;;;5035749;28;20165;-84
2023/03/07 11:59:52;;;;;;;10.07;6.33;;;5.10;99.90;;;;;;5036664;28;20163;-79
2023/03/07 12:02:34;;;;;;;14.43;7.70;;;5.00;99.90;;;;;;5037006;28;20235;-80
2023/03/07 12:05:17;;;;;;;12.03;7.43;;;5.10;99.90;;;;;;5038239;28;20664;-81
2023/03/07 12:08:20;;;;;;;14.63;7.50;;;5.30;99.90;;;;;;5036221;28;20206;-81
2023/03/07 12:11:11;;;;;;;12.53;7.63;;;5.50;99.90;;;;;;5037627;28;20226;-82
2023/03/07 12:13:53;;;;;;;10.63;6.67;;;5.50;99.90;;;;;;5038448;28;20253;-83
2023/03/07 12:16:49;;;;;;;10.63;6.93;;;5.50;99.90;;;;;;5038425;28;20182;-83
2023/03/07 12:19:38;;;;;;;12.23;7.63;;;5.50;99.90;;;;;;5038305;28;20223;-80
2023/03/07 12:22:19;;;;;;;11.80;7.60;;;5.40;99.90;;;;;;5031159;28;20240;-81
2023/03/07 12:25:20;;;;;;;10.57;6.47;;;5.30;99.90;;;;;;5036501;28;20198;-80
2023/03/07 12:28:09;;;;;;;9.50;6.57;;;5.20;99.90;;;;;;5028349;28;20217;-80
2023/03/07 12:30:42;;;;;;;12.17;6.40;;;5.00;99.90;;;;;;5036042;28;20162;-81
2023/03/07 12:33:18;;;;;;;10.50;6.90;;;4.90;99.90;;;;;;5036869;28;20176;-81
2023/03/07 12:35:51;;;;;;;10.07;6.77;;;5.00;99.90;;;;;;5036724;28;20178;-80
2023/03/07 12:38:38;;;;;;;9.63;6.17;;;4.90;99.90;;;;;;5035989;28;20209;-81
2023/03/07 12:41:40;;;;;;;9.73;7.03;;;4.90;99.90;;;;;;5035347;28;20158;-80
2023/03/07 12:44:30;;;;;;;10.30;6.50;;;4.80;99.90;;;;;;5035135;28;20165;-80
2023/03/07 12:47:16;;;;;;;9.77;6.47;;;4.90;99.90;;;;;;5035107;28;20235;-80
2023/03/07 12:50:05;;;;;;;10.60;6.43;;;4.90;99.90;;;;;;5036136;28;20173;-81
2023/03/07 12:52:38;;;;;;;10.07;6.30;;;5.10;99.90;;;;;;5035370;28;20184;-80
2023/03/07 12:55:36;;;;;;;10.97;6.80;;;5.10;99.90;;;;;;5036431;28;20161;-81